Time;durP1;ratioP1;P1;durP2;ratioP2;P2;SDS_P1;SDS_P2;PMS_P1;PMS_P2;Temp;Humidity;BMP_temperature;BMP_pressure;BME280_temperature;BME280_humidity;BME280_pressure;Samples;Min_cycle;Max_cycle;Signal;HPM_P1;HPM_P2
2022/01/25 00:08:43;;;;;;;55.87;34.67;;;6.50;89.10;;;;;;5042186;28;19920;-79
2022/01/25 00:25:06;;;;;;;61.00;36.33;;;6.50;89.30;;;;;;5049832;28;20094;-78
2022/01/25 00:27:42;;;;;;;58.90;37.50;;;6.50;89.20;;;;;;5052714;28;20112;-78
2022/01/25 00:33:09;;;;;;;58.97;36.03;;;6.40;89.30;;;;;;5039354;28;20033;-78
2022/01/25 00:35:35;;;;;;;64.70;36.77;;;6.50;89.50;;;;;;5047578;28;20095;-78
2022/01/25 00:38:00;;;;;;;58.60;37.23;;;6.40;89.40;;;;;;5051575;28;20033;-78
2022/01/25 00:40:26;;;;;;;59.37;36.97;;;6.50;89.50;;;;;;5045303;28;20013;-78
2022/01/25 00:42:54;;;;;;;63.67;40.13;;;6.50;89.50;;;;;;5064768;28;20022;-78
2022/01/25 00:45:20;;;;;;;58.70;35.47;;;6.50;89.50;;;;;;5035134;28;20021;-78
2022/01/25 00:47:49;;;;;;;60.80;37.60;;;6.40;89.30;;;;;;5035382;28;20021;-78
2022/01/25 00:50:15;;;;;;;61.93;38.10;;;6.40;89.30;;;;;;5035411;28;20361;-78
2022/01/25 00:55:15;;;;;;;63.57;39.03;;;6.40;89.50;;;;;;5068410;28;20111;-78
2022/01/25 00:57:41;;;;;;;61.27;38.63;;;6.40;89.60;;;;;;5038805;28;20021;-78
2022/01/25 01:00:10;;;;;;;60.27;38.03;;;6.40;89.90;;;;;;5026662;28;20088;-78
2022/01/25 01:02:35;;;;;;;61.50;38.30;;;6.40;89.60;;;;;;5046561;28;20025;-78
2022/01/25 01:05:01;;;;;;;59.83;35.80;;;6.40;89.70;;;;;;5051732;28;20025;-79
2022/01/25 01:07:27;;;;;;;60.40;37.97;;;6.40;90.10;;;;;;5051646;28;20056;-78
2022/01/25 01:09:54;;;;;;;56.43;35.40;;;6.40;89.80;;;;;;5051072;28;20025;-79
2022/01/25 01:13:12;;;;;;;57.40;34.87;;;6.40;89.80;;;;;;5050608;28;20374;-79
2022/01/25 01:31:21;;;;;;;57.13;35.15;;;6.30;89.40;;;;;;5053327;28;20039;-78
2022/01/25 01:44:37;;;;;;;52.03;32.10;;;6.30;89.10;;;;;;5056471;28;20040;-78
2022/01/25 01:49:30;;;;;;;56.60;33.63;;;6.20;88.90;;;;;;5054949;28;20036;-78
2022/01/25 01:51:56;;;;;;;49.50;31.73;;;6.10;88.70;;;;;;5034024;28;20385;-78
2022/01/25 01:54:22;;;;;;;50.93;33.03;;;6.10;88.70;;;;;;5036365;28;20021;-78
2022/01/25 01:56:48;;;;;;;48.47;32.40;;;6.10;88.60;;;;;;5054986;28;20027;-78
2022/01/25 01:59:16;;;;;;;56.00;34.30;;;6.20;88.70;;;;;;5038130;28;20389;-78
2022/01/25 02:01:44;;;;;;;52.00;32.57;;;6.10;88.60;;;;;;5055795;28;20028;-78
2022/01/25 02:04:12;;;;;;;51.63;32.30;;;6.10;88.60;;;;;;5054632;28;20041;-78
2022/01/25 02:06:38;;;;;;;56.33;34.40;;;6.10;88.60;;;;;;5054428;28;20029;-78
2022/01/25 02:09:07;;;;;;;55.83;33.40;;;6.10;88.60;;;;;;5051971;28;20025;-79
2022/01/25 02:11:32;;;;;;;54.57;32.73;;;6.10;88.60;;;;;;5048056;28;20021;-78
2022/01/25 02:14:04;;;;;;;51.07;32.33;;;6.10;88.60;;;;;;5051059;28;20079;-78
2022/01/25 02:24:30;;;;;;;51.53;32.90;;;6.00;89.30;;;;;;5036081;28;20112;-77
2022/01/25 02:26:57;;;;;;;54.50;34.30;;;6.10;88.60;;;;;;5025494;28;20060;-77
2022/01/25 02:29:23;;;;;;;56.23;34.03;;;6.10;88.60;;;;;;5040246;28;20063;-78
2022/01/25 02:31:49;;;;;;;56.40;33.50;;;6.10;88.50;;;;;;5055393;28;20029;-78
2022/01/25 02:34:15;;;;;;;55.03;33.97;;;6.10;88.40;;;;;;5038171;28;20039;-77
2022/01/25 02:36:41;;;;;;;52.67;33.87;;;6.00;88.20;;;;;;5054433;28;20021;-77
2022/01/25 02:39:06;;;;;;;51.93;33.97;;;6.00;88.20;;;;;;5071757;28;20500;-76
2022/01/25 02:41:33;;;;;;;49.93;31.43;;;6.00;88.20;;;;;;5037793;28;20424;-77
2022/01/25 02:43:59;;;;;;;48.53;31.17;;;6.00;88.10;;;;;;5055023;28;20033;-77
2022/01/25 02:49:05;;;;;;;50.03;32.77;;;6.00;88.10;;;;;;5086252;28;20104;-77
2022/01/25 02:51:33;;;;;;;52.88;33.22;;;6.00;88.00;;;;;;5052545;28;20039;-77
2022/01/25 02:54:00;;;;;;;47.33;30.93;;;6.00;88.00;;;;;;5055290;28;20057;-76
2022/01/25 02:56:29;;;;;;;50.50;32.20;;;6.00;88.00;;;;;;5036305;28;20492;-76
2022/01/25 02:58:58;;;;;;;54.97;33.67;;;6.00;87.70;;;;;;5053061;28;20524;-76
2022/01/25 03:01:24;;;;;;;51.83;33.70;;;5.90;87.60;;;;;;5053760;28;20075;-77
2022/01/25 03:03:50;;;;;;;56.77;35.17;;;6.00;87.80;;;;;;5053348;28;20465;-77
2022/01/25 03:06:18;;;;;;;54.87;32.33;;;5.90;87.80;;;;;;5055011;28;20028;-77
2022/01/25 03:08:45;;;;;;;55.20;34.00;;;5.90;87.90;;;;;;5037172;28;20029;-77
2022/01/25 03:11:11;;;;;;;54.93;33.97;;;5.90;87.90;;;;;;5053719;28;20091;-78
2022/01/25 03:13:49;;;;;;;56.27;34.93;;;6.00;87.90;;;;;;5054708;28;20025;-78
2022/01/25 03:16:36;;;;;;;58.43;35.40;;;5.80;87.80;;;;;;5038705;28;20032;-77
2022/01/25 03:19:27;;;;;;;57.43;35.63;;;5.90;87.80;;;;;;5039676;28;20037;-78
2022/01/25 03:21:50;;;;;;;56.47;35.33;;;5.90;87.80;;;;;;5054214;28;20036;-77
2022/01/25 03:24:16;;;;;;;59.03;35.63;;;5.90;87.80;;;;;;5053440;28;20082;-78
2022/01/25 03:26:41;;;;;;;56.37;35.77;;;5.90;87.90;;;;;;5031200;28;20097;-78
2022/01/25 03:29:07;;;;;;;59.23;35.83;;;6.00;88.10;;;;;;5047187;28;20489;-77
2022/01/25 03:31:33;;;;;;;58.93;35.93;;;5.80;88.00;;;;;;5049438;28;20393;-78
2022/01/25 03:33:59;;;;;;;61.53;36.57;;;5.90;88.00;;;;;;5049001;28;20036;-77
2022/01/25 03:36:25;;;;;;;62.23;36.67;;;5.90;87.90;;;;;;5052737;28;20404;-77
2022/01/25 03:38:52;;;;;;;66.07;39.30;;;5.90;88.00;;;;;;5054256;28;20036;-78
2022/01/25 03:41:18;;;;;;;63.23;37.90;;;5.80;87.90;;;;;;5052805;28;20497;-78
2022/01/25 03:43:50;;;;;;;58.80;35.57;;;5.90;87.90;;;;;;5052996;28;20056;-77
2022/01/25 03:46:23;;;;;;;68.37;40.53;;;5.80;87.80;;;;;;5080411;28;20034;-77
2022/01/25 03:51:33;;;;;;;69.03;37.35;;;5.80;87.60;;;;;;5053040;28;20032;-77
2022/01/25 03:53:59;;;;;;;70.57;40.17;;;5.90;87.60;;;;;;5048687;28;20021;-78
2022/01/25 03:56:25;;;;;;;68.80;38.60;;;5.90;87.60;;;;;;5016968;28;20113;-78
2022/01/25 03:58:51;;;;;;;66.43;37.80;;;6.00;87.50;;;;;;5053629;28;20173;-78
2022/01/25 04:01:17;;;;;;;68.47;39.50;;;5.90;87.50;;;;;;5052536;28;20029;-78
2022/01/25 04:03:54;;;;;;;75.63;41.90;;;5.80;87.30;;;;;;5052278;28;20078;-77
2022/01/25 04:06:21;;;;;;;72.17;40.67;;;5.80;87.50;;;;;;5052565;28;20060;-78
2022/01/25 04:08:47;;;;;;;71.93;39.63;;;5.80;87.40;;;;;;5052123;28;20033;-78
2022/01/25 04:11:13;;;;;;;74.10;40.83;;;5.80;87.50;;;;;;5068820;28;20033;-77
2022/01/25 04:13:38;;;;;;;68.63;37.57;;;5.80;87.50;;;;;;5052490;28;20449;-77
2022/01/25 04:16:11;;;;;;;69.07;38.97;;;5.80;87.40;;;;;;5069072;28;20033;-78
2022/01/25 04:18:53;;;;;;;70.17;39.67;;;5.80;87.40;;;;;;5067971;28;20056;-77
2022/01/25 04:26:44;;;;;;;68.57;37.70;;;5.80;87.50;;;;;;5053643;28;20057;-77
2022/01/25 04:29:10;;;;;;;71.50;39.83;;;5.80;87.50;;;;;;5051671;28;20037;-77
2022/01/25 04:31:37;;;;;;;69.63;39.30;;;5.80;87.50;;;;;;5052707;28;20020;-78
2022/01/25 04:34:14;;;;;;;70.07;38.30;;;5.80;87.50;;;;;;5085902;28;20104;-78
2022/01/25 04:50:10;;;;;;;68.15;37.30;;;5.80;87.60;;;;;;5056662;28;20044;-77
2022/01/25 04:52:48;;;;;;;74.80;40.80;;;5.90;87.60;;;;;;5036390;28;20478;-77
2022/01/25 04:55:23;;;;;;;68.10;38.27;;;5.80;87.40;;;;;;5036644;28;20108;-78
2022/01/25 04:58:01;;;;;;;65.40;36.83;;;5.80;87.30;;;;;;5036153;28;20079;-78
2022/01/25 05:00:28;;;;;;;66.23;37.13;;;5.80;87.40;;;;;;5038181;28;20029;-78
2022/01/25 05:02:59;;;;;;;72.60;39.23;;;5.80;87.50;;;;;;5052508;28;20037;-79
2022/01/25 05:08:06;;;;;;;65.77;37.70;;;5.80;87.50;;;;;;5057474;28;20043;-78
2022/01/25 05:10:37;;;;;;;66.93;37.80;;;5.80;87.50;;;;;;5055884;28;20021;-77
2022/01/25 05:23:22;;;;;;;70.63;38.45;;;5.80;87.30;;;;;;5036054;28;20119;-77
2022/01/25 05:25:47;;;;;;;73.00;39.83;;;5.80;87.10;;;;;;5060652;28;20041;-78
2022/01/25 05:28:13;;;;;;;72.40;41.27;;;5.80;87.00;;;;;;5036882;28;20436;-78
2022/01/25 05:30:39;;;;;;;73.77;39.63;;;5.80;86.90;;;;;;5036531;28;20436;-78
2022/01/25 05:33:04;;;;;;;70.93;39.50;;;5.80;86.80;;;;;;5018924;28;20037;-78
2022/01/25 05:35:31;;;;;;;68.80;37.90;;;5.80;86.90;;;;;;5021041;28;20025;-78
2022/01/25 05:37:56;;;;;;;67.93;38.27;;;5.80;86.80;;;;;;5036754;28;20461;-78
2022/01/25 05:40:58;;;;;;;69.37;38.13;;;5.70;86.80;;;;;;5035470;28;20026;-78
2022/01/25 05:48:36;;;;;;;70.43;38.63;;;5.80;86.70;;;;;;5026384;28;20033;-78
2022/01/25 05:51:02;;;;;;;71.37;38.53;;;5.70;86.50;;;;;;5047934;28;20086;-77
2022/01/25 05:53:27;;;;;;;68.83;38.47;;;5.80;86.70;;;;;;5071271;28;20037;-78
2022/01/25 05:55:54;;;;;;;72.23;39.50;;;5.70;86.70;;;;;;5071238;28;20120;-77
2022/01/25 05:58:20;;;;;;;72.20;40.43;;;5.70;86.70;;;;;;5055342;28;20051;-77
2022/01/25 06:00:46;;;;;;;64.93;37.00;;;5.70;86.80;;;;;;5055028;28;20017;-78
2022/01/25 06:03:12;;;;;;;66.40;37.10;;;5.70;86.90;;;;;;5063776;28;20074;-77
2022/01/25 06:05:38;;;;;;;70.43;38.63;;;5.70;86.90;;;;;;5036811;28;20496;-78
2022/01/25 06:08:04;;;;;;;68.33;37.73;;;5.80;86.90;;;;;;5051073;28;20487;-77
2022/01/25 06:10:30;;;;;;;70.27;39.43;;;5.70;86.80;;;;;;5035731;28;20025;-78
2022/01/25 06:12:56;;;;;;;70.33;38.47;;;5.70;86.90;;;;;;5035802;28;20017;-77
2022/01/25 06:15:22;;;;;;;69.27;38.00;;;5.70;86.90;;;;;;5051072;28;20457;-77
2022/01/25 06:17:49;;;;;;;71.47;39.60;;;5.70;86.90;;;;;;5034435;28;20037;-77
2022/01/25 06:20:15;;;;;;;67.47;37.97;;;5.70;86.80;;;;;;5050117;28;20033;-77
2022/01/25 06:22:41;;;;;;;70.87;39.87;;;5.70;86.50;;;;;;5038166;28;20090;-77
2022/01/25 06:25:07;;;;;;;70.83;39.00;;;5.60;86.40;;;;;;5037565;28;20397;-79
2022/01/25 06:27:33;;;;;;;70.80;39.33;;;5.60;86.50;;;;;;5087598;28;20469;-79
2022/01/25 06:30:02;;;;;;;77.30;41.50;;;5.60;86.50;;;;;;5052356;28;20033;-78
2022/01/25 06:32:27;;;;;;;72.43;40.20;;;5.60;86.50;;;;;;5036150;28;20025;-78
2022/01/25 06:34:53;;;;;;;70.93;38.00;;;5.60;86.50;;;;;;5053525;28;20079;-78
2022/01/25 06:37:19;;;;;;;74.90;40.20;;;5.60;86.60;;;;;;5053958;28;20088;-78
2022/01/25 06:39:44;;;;;;;69.30;40.53;;;5.60;86.70;;;;;;5052427;28;20029;-78
2022/01/25 06:42:10;;;;;;;68.43;38.43;;;5.60;86.70;;;;;;5037285;28;20461;-77
2022/01/25 06:44:37;;;;;;;73.60;40.83;;;5.60;86.70;;;;;;5053398;28;20476;-77
2022/01/25 06:47:03;;;;;;;71.53;38.63;;;5.60;86.90;;;;;;5034167;28;20466;-77
2022/01/25 06:49:29;;;;;;;72.73;39.40;;;5.60;86.60;;;;;;5047501;28;20040;-78
2022/01/25 06:51:55;;;;;;;69.77;38.40;;;5.60;86.50;;;;;;5039557;28;20033;-78
2022/01/25 06:54:21;;;;;;;76.40;40.47;;;5.50;87.10;;;;;;5036455;28;20449;-78
2022/01/25 06:56:47;;;;;;;70.07;38.70;;;5.50;86.50;;;;;;5052593;28;20065;-78
2022/01/25 06:59:12;;;;;;;73.37;40.10;;;5.50;86.60;;;;;;5069019;28;20114;-78
2022/01/25 07:01:38;;;;;;;70.43;38.00;;;5.60;86.70;;;;;;5048654;28;20037;-78
2022/01/25 07:04:04;;;;;;;76.07;40.13;;;5.60;86.70;;;;;;5036357;28;20037;-78
2022/01/25 07:06:30;;;;;;;72.67;38.03;;;5.60;86.60;;;;;;5036741;28;20040;-78
2022/01/25 07:08:55;;;;;;;73.37;38.47;;;5.40;86.60;;;;;;5051983;28;20025;-78
2022/01/25 07:11:22;;;;;;;70.33;38.97;;;5.50;86.70;;;;;;5053017;28;20028;-78
2022/01/25 07:13:47;;;;;;;73.90;39.83;;;5.50;86.70;;;;;;5052733;28;20021;-78
2022/01/25 07:16:14;;;;;;;73.53;38.67;;;5.50;86.70;;;;;;5069231;28;20385;-78
2022/01/25 07:18:39;;;;;;;76.17;41.07;;;5.50;86.70;;;;;;5053077;28;20033;-79
2022/01/25 07:21:05;;;;;;;78.27;42.20;;;5.60;86.60;;;;;;5035598;28;20519;-77
2022/01/25 07:23:31;;;;;;;74.47;41.90;;;5.60;86.50;;;;;;5036318;28;20025;-77
2022/01/25 07:25:57;;;;;;;79.37;42.43;;;5.60;86.50;;;;;;5036701;28;20071;-79
2022/01/25 07:28:23;;;;;;;74.17;41.40;;;5.60;86.40;;;;;;5052867;28;20059;-77
2022/01/25 07:30:49;;;;;;;74.73;40.90;;;5.60;86.50;;;;;;5053917;28;20493;-77
2022/01/25 07:33:14;;;;;;;73.53;40.33;;;5.50;86.50;;;;;;5036338;28;20499;-79
2022/01/25 07:35:40;;;;;;;72.77;38.67;;;5.50;86.50;;;;;;5036050;28;20040;-78
2022/01/25 07:38:07;;;;;;;75.33;40.17;;;5.50;86.60;;;;;;5052315;28;20028;-79
2022/01/25 07:40:35;;;;;;;78.47;40.03;;;5.50;87.30;;;;;;5069643;28;20524;-79
2022/01/25 07:43:01;;;;;;;70.87;38.60;;;5.50;86.70;;;;;;5069066;28;20025;-79
2022/01/25 07:45:34;;;;;;;74.23;40.70;;;5.50;86.80;;;;;;5052576;28;20039;-79
2022/01/25 07:47:59;;;;;;;75.50;40.00;;;5.60;86.70;;;;;;5052195;28;20078;-80
2022/01/25 07:50:26;;;;;;;76.80;41.33;;;5.60;86.70;;;;;;5035576;28;20381;-80
2022/01/25 07:52:51;;;;;;;76.43;41.57;;;5.60;86.70;;;;;;5035706;28;20049;-79
2022/01/25 07:55:18;;;;;;;77.80;41.83;;;5.60;86.70;;;;;;5035607;28;20025;-77
2022/01/25 07:57:43;;;;;;;76.10;41.00;;;5.60;86.70;;;;;;5035549;28;20017;-77
2022/01/25 08:00:10;;;;;;;80.77;43.63;;;5.60;86.70;;;;;;5035788;28;20500;-78
2022/01/25 08:02:35;;;;;;;71.13;38.83;;;5.60;86.70;;;;;;5051955;28;20044;-79
2022/01/25 08:05:02;;;;;;;72.03;41.10;;;5.70;86.70;;;;;;5036267;28;20040;-78
2022/01/25 08:07:27;;;;;;;77.37;41.43;;;5.60;86.70;;;;;;5054236;28;20031;-78
2022/01/25 08:09:53;;;;;;;74.20;40.33;;;5.70;86.80;;;;;;5048319;28;20381;-78
2022/01/25 08:12:18;;;;;;;74.43;40.23;;;5.70;86.80;;;;;;5035257;28;20027;-79
2022/01/25 08:14:44;;;;;;;77.57;41.17;;;5.70;86.80;;;;;;5068680;28;20033;-79
2022/01/25 08:17:10;;;;;;;81.77;43.43;;;5.70;86.90;;;;;;5052048;28;20021;-79
2022/01/25 08:19:35;;;;;;;83.00;41.60;;;5.70;86.80;;;;;;5046062;28;20499;-78
2022/01/25 08:22:01;;;;;;;76.63;42.20;;;5.70;86.70;;;;;;5072135;28;20036;-79
2022/01/25 08:24:27;;;;;;;80.23;42.00;;;5.70;86.60;;;;;;5043908;28;20029;-78
2022/01/25 08:26:52;;;;;;;78.37;41.07;;;5.70;86.60;;;;;;5052729;28;20025;-79
2022/01/25 08:29:18;;;;;;;77.63;42.10;;;5.70;86.50;;;;;;5051698;28;20124;-79
2022/01/25 08:31:45;;;;;;;74.83;40.73;;;5.70;86.50;;;;;;5019633;28;20060;-79
2022/01/25 08:34:13;;;;;;;75.87;41.73;;;5.70;86.60;;;;;;5035396;28;20121;-79
2022/01/25 08:36:40;;;;;;;72.13;39.17;;;5.70;86.60;;;;;;5052053;28;20056;-79
2022/01/25 08:39:07;;;;;;;77.77;42.90;;;5.70;86.60;;;;;;5052997;28;20552;-79
2022/01/25 08:41:33;;;;;;;73.97;38.93;;;5.70;86.60;;;;;;5053015;28;20044;-79
2022/01/25 08:43:59;;;;;;;77.37;40.53;;;5.70;86.70;;;;;;5051941;28;20028;-79
2022/01/25 08:46:25;;;;;;;72.57;40.30;;;5.70;86.70;;;;;;5051454;28;20033;-81
2022/01/25 08:48:51;;;;;;;78.00;41.53;;;5.80;86.70;;;;;;5051533;28;20039;-80
2022/01/25 08:51:17;;;;;;;76.23;40.47;;;5.60;86.70;;;;;;5052835;28;20096;-80
2022/01/25 08:53:43;;;;;;;77.70;41.17;;;5.70;86.80;;;;;;5034647;28;20033;-80
2022/01/25 08:56:09;;;;;;;73.80;39.63;;;5.70;86.80;;;;;;5035093;28;20025;-80
2022/01/25 08:58:35;;;;;;;74.10;39.70;;;5.70;86.70;;;;;;5031853;28;20382;-78
2022/01/25 09:01:01;;;;;;;88.57;41.53;;;5.70;86.70;;;;;;5038846;28;20469;-78
2022/01/25 09:03:27;;;;;;;80.47;43.97;;;5.70;87.20;;;;;;5051332;28;20033;-78
2022/01/25 09:05:53;;;;;;;78.77;41.13;;;5.70;86.30;;;;;;5034653;28;20049;-78
2022/01/25 09:08:21;;;;;;;76.20;40.20;;;5.70;86.30;;;;;;5051267;28;20044;-77
2022/01/25 09:10:53;;;;;;;75.97;40.60;;;5.70;86.30;;;;;;5035484;28;20036;-79
2022/01/25 09:13:19;;;;;;;77.93;41.33;;;5.70;86.40;;;;;;5052861;28;20021;-79
2022/01/25 09:15:45;;;;;;;77.57;41.67;;;5.70;86.40;;;;;;5054215;28;20033;-79
2022/01/25 09:18:12;;;;;;;73.30;38.97;;;5.70;86.30;;;;;;5036695;28;20488;-79
2022/01/25 09:20:38;;;;;;;71.87;39.23;;;5.80;86.40;;;;;;5052378;28;20481;-80
2022/01/25 09:23:03;;;;;;;75.27;40.53;;;5.70;86.30;;;;;;5031901;28;20053;-78
2022/01/25 09:25:30;;;;;;;71.87;39.83;;;5.70;86.40;;;;;;5051898;28;20428;-79
2022/01/25 09:27:56;;;;;;;72.60;40.03;;;5.70;86.40;;;;;;5032875;28;20040;-79
2022/01/25 09:30:22;;;;;;;81.50;41.17;;;5.70;86.50;;;;;;5050994;28;20057;-79
2022/01/25 09:32:48;;;;;;;76.50;39.30;;;5.70;86.50;;;;;;5054583;28;20094;-79
2022/01/25 09:35:13;;;;;;;73.23;40.40;;;5.70;86.60;;;;;;5038351;28;20075;-80
2022/01/25 09:37:39;;;;;;;74.23;38.53;;;5.70;86.70;;;;;;5037741;28;20032;-77
2022/01/25 09:40:06;;;;;;;72.00;38.80;;;5.70;86.70;;;;;;5054771;28;20041;-78
2022/01/25 09:42:31;;;;;;;76.73;40.23;;;5.70;86.80;;;;;;5055022;28;20124;-78
2022/01/25 09:45:02;;;;;;;71.83;39.70;;;5.70;86.80;;;;;;5055333;28;20112;-78
2022/01/25 09:47:28;;;;;;;78.83;41.47;;;5.70;86.80;;;;;;5038765;28;20025;-79
2022/01/25 09:49:57;;;;;;;75.87;40.37;;;5.90;86.80;;;;;;5055021;28;20037;-78
2022/01/25 09:52:23;;;;;;;76.13;40.53;;;5.80;86.60;;;;;;5054272;28;20029;-80
2022/01/25 09:54:54;;;;;;;81.53;44.10;;;5.80;86.30;;;;;;5056370;28;20473;-79
2022/01/25 09:57:21;;;;;;;79.60;41.47;;;5.80;86.30;;;;;;5058542;28;20037;-79
2022/01/25 09:59:51;;;;;;;76.00;41.67;;;5.90;86.40;;;;;;5056003;28;20028;-79
2022/01/25 10:02:40;;;;;;;78.00;41.70;;;5.80;86.20;;;;;;5055199;28;20032;-78
2022/01/25 10:05:18;;;;;;;75.87;39.93;;;5.80;86.30;;;;;;5056071;28;20032;-78
2022/01/25 10:11:23;;;;;;;77.03;40.10;;;5.80;86.40;;;;;;5026762;22;20050;-79
2022/01/25 10:14:25;;;;;;;75.83;41.43;;;5.80;86.30;;;;;;4978735;28;20490;-78
2022/01/25 10:16:55;;;;;;;75.43;40.70;;;5.80;86.50;;;;;;4994375;28;20129;-81
2022/01/25 10:19:26;;;;;;;82.70;42.97;;;5.80;86.50;;;;;;5005047;28;20026;-78
2022/01/25 10:21:52;;;;;;;75.37;40.23;;;5.70;86.40;;;;;;5012971;28;20026;-78
2022/01/25 10:24:27;;;;;;;76.27;40.17;;;5.80;86.50;;;;;;5008194;28;20026;-79
2022/01/25 10:27:02;;;;;;;142.03;53.23;;;5.80;86.60;;;;;;5000030;28;20101;-78
2022/01/25 10:29:36;;;;;;;137.73;52.17;;;5.90;86.70;;;;;;5005353;28;20033;-77
2022/01/25 10:32:10;;;;;;;120.77;47.27;;;5.90;86.50;;;;;;5002145;28;20360;-78
2022/01/25 10:34:44;;;;;;;201.63;62.53;;;5.90;86.50;;;;;;5001038;28;20057;-80
2022/01/25 10:37:12;;;;;;;121.22;47.22;;;5.80;86.30;;;;;;5002773;28;20014;-79
2022/01/25 10:39:46;;;;;;;92.37;44.10;;;5.90;86.40;;;;;;5005401;28;20332;-79
2022/01/25 10:42:20;;;;;;;93.07;42.80;;;5.90;86.50;;;;;;5005700;28;20018;-79
2022/01/25 10:44:54;;;;;;;83.30;41.10;;;5.90;86.50;;;;;;5005400;28;20029;-80
2022/01/25 10:47:44;;;;;;;88.10;41.30;;;5.90;86.50;;;;;;5002629;28;20048;-80
2022/01/25 10:50:34;;;;;;;82.13;41.70;;;6.00;86.50;;;;;;5003626;28;20109;-80
2022/01/25 10:53:07;;;;;;;84.37;41.20;;;6.00;86.40;;;;;;5020174;28;20018;-81
2022/01/25 10:55:42;;;;;;;95.63;41.90;;;6.00;86.30;;;;;;5012787;28;20406;-79
2022/01/25 10:58:09;;;;;;;84.27;41.03;;;6.00;86.20;;;;;;5013221;28;20022;-79
2022/01/25 11:00:38;;;;;;;79.93;41.87;;;5.90;86.10;;;;;;5013088;28;20014;-79
2022/01/25 11:03:05;;;;;;;80.63;41.07;;;6.00;86.10;;;;;;5012812;28;20057;-80
2022/01/25 11:05:34;;;;;;;80.73;41.17;;;5.90;86.00;;;;;;5005613;28;20065;-80
2022/01/25 11:08:14;;;;;;;81.03;42.27;;;6.00;86.10;;;;;;5005229;28;20018;-79
2022/01/25 11:10:53;;;;;;;80.40;41.30;;;6.00;85.90;;;;;;5010415;28;20034;-80
2022/01/25 11:13:35;;;;;;;76.10;38.70;;;6.00;85.90;;;;;;5013251;28;20061;-80
2022/01/25 11:16:07;;;;;;;75.67;40.87;;;5.90;85.90;;;;;;5013020;28;20038;-80
2022/01/25 11:18:36;;;;;;;87.63;41.70;;;5.90;86.10;;;;;;5013070;28;20025;-80
2022/01/25 11:21:05;;;;;;;89.20;44.43;;;5.90;86.10;;;;;;4979547;28;20030;-81
2022/01/25 11:23:34;;;;;;;127.27;47.00;;;5.90;86.00;;;;;;5014378;28;20458;-80
2022/01/25 11:26:09;;;;;;;87.47;41.67;;;5.90;85.90;;;;;;5013175;28;20369;-81
2022/01/25 11:28:38;;;;;;;80.53;38.70;;;5.80;86.00;;;;;;5002155;28;20014;-81
2022/01/25 11:31:11;;;;;;;80.03;40.20;;;5.80;86.00;;;;;;5011803;28;20021;-81
2022/01/25 11:33:43;;;;;;;73.15;38.00;;;5.80;86.10;;;;;;5013307;28;20021;-81
2022/01/25 11:36:10;;;;;;;79.40;40.20;;;5.80;86.80;;;;;;5006494;28;20049;-81
2022/01/25 11:38:42;;;;;;;75.43;39.27;;;5.80;86.30;;;;;;4993328;28;20061;-81
2022/01/25 11:41:11;;;;;;;67.63;34.97;;;5.80;86.40;;;;;;5010227;28;20092;-81
2022/01/25 11:43:37;;;;;;;78.43;40.07;;;5.70;86.40;;;;;;4996317;28;20026;-81
2022/01/25 11:46:06;;;;;;;73.93;38.33;;;5.80;86.20;;;;;;4996129;28;20112;-80
2022/01/25 11:48:44;;;;;;;151.23;51.47;;;5.80;86.10;;;;;;5012368;28;20481;-81
2022/01/25 11:51:28;;;;;;;97.00;42.83;;;5.80;86.20;;;;;;4991713;28;20023;-80
2022/01/25 11:53:54;;;;;;;91.43;39.50;;;5.80;86.20;;;;;;4994646;28;20367;-81
2022/01/25 11:56:19;;;;;;;83.93;40.33;;;6.00;86.40;;;;;;4975153;28;20041;-81
2022/01/25 11:58:57;;;;;;;83.03;41.73;;;5.80;86.30;;;;;;4976647;28;20030;-81
2022/01/25 12:01:25;;;;;;;88.17;40.60;;;5.80;86.40;;;;;;5011665;28;20105;-81
2022/01/25 12:04:03;;;;;;;99.10;43.10;;;5.90;86.40;;;;;;5012450;28;20454;-80
2022/01/25 12:06:36;;;;;;;166.80;52.70;;;5.90;86.30;;;;;;5012324;28;20026;-80
2022/01/25 12:09:42;;;;;;;147.73;49.83;;;6.00;86.40;;;;;;4994288;28;20018;-80
2022/01/25 12:12:13;;;;;;;89.23;41.60;;;5.90;86.30;;;;;;5002918;28;20041;-80
2022/01/25 12:14:54;;;;;;;93.97;41.53;;;5.90;86.30;;;;;;5010987;28;20520;-80
2022/01/25 12:17:26;;;;;;;76.20;37.53;;;5.90;86.30;;;;;;5004524;28;20033;-81
2022/01/25 12:20:03;;;;;;;78.27;39.13;;;6.00;86.30;;;;;;5006431;28;20022;-81
2022/01/25 12:25:18;;;;;;;71.27;36.50;;;6.00;86.30;;;;;;5007527;28;20034;-81
2022/01/25 12:27:55;;;;;;;74.93;38.87;;;6.00;86.20;;;;;;5006897;28;20496;-79
2022/01/25 12:30:32;;;;;;;81.83;39.47;;;6.00;86.30;;;;;;5006633;28;20458;-83
2022/01/25 12:33:08;;;;;;;91.37;40.60;;;6.00;86.40;;;;;;5013026;28;20025;-81
2022/01/25 12:35:50;;;;;;;80.50;40.03;;;6.00;86.40;;;;;;5012811;28;20455;-80
2022/01/25 12:38:20;;;;;;;76.03;38.57;;;6.00;86.20;;;;;;5011550;28;20103;-82
2022/01/25 12:40:50;;;;;;;72.50;38.70;;;6.00;85.90;;;;;;5011369;28;20034;-80
2022/01/25 12:43:18;;;;;;;71.90;37.03;;;6.00;85.90;;;;;;5012415;28;20024;-86
2022/01/25 12:46:06;;;;;;;77.43;38.50;;;6.00;85.90;;;;;;5011458;28;20113;-83
2022/01/25 12:48:37;;;;;;;100.27;41.13;;;6.10;86.00;;;;;;5010732;28;20109;-87
2022/01/25 12:51:09;;;;;;;92.80;41.27;;;6.00;86.00;;;;;;5012359;28;20033;-81
2022/01/25 12:53:36;;;;;;;103.60;44.37;;;6.00;85.90;;;;;;5013081;28;20552;-82
2022/01/25 12:56:10;;;;;;;107.03;46.20;;;6.00;85.90;;;;;;5011866;28;20029;-81
2022/01/25 12:58:37;;;;;;;95.40;40.53;;;6.00;86.00;;;;;;5011467;28;20032;-82
2022/01/25 13:01:09;;;;;;;87.47;40.90;;;6.00;85.90;;;;;;5011128;28;20506;-83
2022/01/25 13:03:47;;;;;;;80.30;39.13;;;6.10;85.90;;;;;;5011132;28;20068;-83
2022/01/25 13:06:21;;;;;;;95.63;39.53;;;6.10;85.90;;;;;;5012927;28;20026;-83
2022/01/25 13:16:42;;;;;;;75.27;38.33;;;6.00;85.70;;;;;;5016181;28;20369;-82
2022/01/25 13:19:09;;;;;;;76.10;38.37;;;6.00;85.70;;;;;;5016391;28;20057;-83
2022/01/25 13:21:51;;;;;;;72.40;37.27;;;6.00;85.80;;;;;;4995971;28;20053;-79
2022/01/25 13:24:18;;;;;;;70.30;36.63;;;6.00;85.90;;;;;;5013623;28;20072;-79
2022/01/25 13:27:00;;;;;;;72.07;38.20;;;6.00;86.00;;;;;;4998582;28;20054;-79
2022/01/25 13:32:37;;;;;;;84.00;38.63;;;6.00;86.30;;;;;;5016166;28;20381;-80
2022/01/25 13:35:14;;;;;;;90.03;42.00;;;6.00;86.20;;;;;;5013627;28;20753;-79
2022/01/25 13:37:40;;;;;;;102.67;41.87;;;6.00;86.00;;;;;;5015867;28;20014;-79
2022/01/25 13:40:06;;;;;;;93.40;40.60;;;6.00;85.90;;;;;;4997371;28;20021;-79
2022/01/25 13:42:42;;;;;;;81.77;38.87;;;6.10;85.90;;;;;;5014528;28;20026;-87
2022/01/25 13:48:07;;;;;;;73.83;37.57;;;6.00;86.70;;;;;;5015258;28;20072;-83
2022/01/25 13:50:35;;;;;;;69.80;36.83;;;6.10;86.10;;;;;;5014485;28;20084;-81
2022/01/25 13:53:02;;;;;;;73.87;38.60;;;6.00;86.10;;;;;;5016316;28;20026;-81
2022/01/25 13:55:28;;;;;;;70.87;38.70;;;6.00;86.00;;;;;;5015738;28;20022;-86
2022/01/25 13:57:54;;;;;;;70.97;37.50;;;6.10;86.10;;;;;;5014127;28;20041;-81
2022/01/25 14:00:20;;;;;;;70.90;36.43;;;6.00;86.10;;;;;;5013700;28;20470;-79
2022/01/25 14:02:55;;;;;;;72.87;37.20;;;6.00;86.10;;;;;;4997426;28;20030;-80
2022/01/25 14:05:22;;;;;;;73.63;39.07;;;6.10;86.10;;;;;;5015120;28;20025;-81
2022/01/25 14:07:52;;;;;;;69.00;36.37;;;6.10;85.90;;;;;;5015704;28;20072;-80
2022/01/25 14:10:24;;;;;;;66.97;36.27;;;6.10;85.90;;;;;;5014848;28;20037;-80
2022/01/25 14:23:57;;;;;;;56.37;30.13;;;6.00;85.90;;;;;;5014109;28;19912;-80
2022/01/25 14:26:28;;;;;;;63.37;33.23;;;6.00;85.90;;;;;;5013298;28;20055;-79
2022/01/25 14:29:04;;;;;;;65.77;33.53;;;6.00;85.80;;;;;;5014998;28;20474;-80
2022/01/25 14:31:37;;;;;;;67.70;35.43;;;6.00;85.80;;;;;;5013533;28;20065;-80
2022/01/25 14:34:05;;;;;;;70.53;36.53;;;6.00;85.80;;;;;;5013942;28;20055;-82
2022/01/25 14:36:31;;;;;;;66.87;35.50;;;6.00;85.70;;;;;;4997534;28;20113;-81
2022/01/25 14:38:58;;;;;;;69.53;36.20;;;6.00;85.70;;;;;;4997283;28;20117;-80
2022/01/25 14:41:28;;;;;;;69.73;35.80;;;6.10;85.70;;;;;;5013689;28;20026;-81
2022/01/25 14:43:57;;;;;;;65.87;33.57;;;6.10;85.60;;;;;;4998831;28;20022;-78
2022/01/25 14:46:32;;;;;;;67.90;35.97;;;6.00;85.50;;;;;;4992512;28;20025;-78
2022/01/25 14:49:08;;;;;;;70.80;36.73;;;6.00;85.50;;;;;;5006493;28;20029;-79
2022/01/25 14:51:45;;;;;;;69.43;37.00;;;6.00;85.60;;;;;;5014541;28;20076;-79
2022/01/25 14:54:14;;;;;;;63.00;33.77;;;6.00;85.50;;;;;;5015071;28;20014;-79
2022/01/25 14:56:51;;;;;;;67.63;37.00;;;6.00;85.50;;;;;;5014006;28;20076;-78
2022/01/25 14:59:24;;;;;;;67.53;36.00;;;6.00;85.40;;;;;;5013760;28;20018;-80
2022/01/25 15:01:54;;;;;;;50.77;26.33;;;6.10;85.40;;;;;;5014783;28;20022;-79
2022/01/25 15:04:20;;;;;;;63.93;34.07;;;6.00;85.30;;;;;;4997469;28;20205;-78